Airfield :
LOGIN :

Register | Disclaimer

   EN    FR    IT 

 










Legend :    VFR   Marginal VFR   IFR   Intensive IFR   Very Intensive IFR
Visi :
Ceiling :
>= 8 km
>= 3000ft
5 to 8 km
1000 to 3000 ft
1500m to 5 km
500 to 1000 ft
800 to 1500m
200 to 500 ft
< 800m
< 200 ft
Symbols :   Thunderstorms  Fog  Heavy snow  Heavy precipitations  Wind > 20 kt
SIGMETs :     Misc.  Thunderstorms  Icing  Turbulence  Mountain Waves  Volcanic Ashes






- Airport Elevation : 121 ft
- IATA code : HUY


EGNJ - Humberside

CURRENT METAR :
  • 241550Z 24022G32KT 9999 FEW024 BKN034 14/09 Q0995

EXPIRED METARs :
  • 241520Z 23023KT 9999 FEW018 BKN027 14/10 Q0995
  • 241450Z 23019KT 9999 FEW015 BKN022 14/10 Q0995
  • 241420Z 23020KT 9999 SCT015 BKN022 13/11 Q0995
  • 241350Z 22024KT 9999 SCT014 BKN019 13/10 Q0996
  • 241320Z 22021KT 9999 FEW013 BKN016 12/10 Q0996

TAF TAF EGNJ
Valid from the 24 at 15:00 until the 25 at 00:00 UTC


241401Z 2415/2424 23018KT 9999 SCT020
BECMG 2415/2418 24020G30KT
PROB40
TEMPO 2415/2424 8000 RA BKN012
ATIS : +44 1652 682 020



MET'MAP, your aeronautical weather chart ! - Copyright ORBIFLY December 2007 - Disclaimer

ORBIFLY MET'MAP TEAM :

Programming & Development : Alexandra Zaïnal
Concept & original design : Baudouin d'Aumeries
Assistance for programming : Marc-Olivier Méhu
Technical & hardware support : Manuel Goepfert

Contact : metmap@orbifly.com




SOURCES & CREDITS :

   NOAA